Time,TemperatureF,DewpointF,PressureIn,WindDirection,WindDirectionDegrees,WindSpeedMPH,WindSpeedGustMPH,Humidity,HourlyPrecipIn,Conditions,Clouds,dailyrainin,SolarRadiationWatts/m^2,SoftwareType,DateUTC
2013-02-28 00:12:00,38.6,37.0,29.72,SSW,211,0.0,0.0,94,0.00,,,0.00,0,weatherlink.com 1.10,2013-02-28 05:12:00,
2013-02-28 00:27:00,38.5,37.0,29.72,SSW,211,0.0,0.0,94,0.00,,,0.00,0,weatherlink.com 1.10,2013-02-28 05:27:00,
2013-02-28 00:42:00,38.2,37.0,29.71,SSW,211,0.0,0.0,94,0.00,,,0.00,0,weatherlink.com 1.10,2013-02-28 05:42:00,
2013-02-28 00:57:00,37.2,35.0,29.73,SW,233,0.0,4.0,93,0.00,,,0.00,0,weatherlink.com 1.10,2013-02-28 05:57:00,
2013-02-28 01:12:00,39.3,38.0,29.73,SW,233,0.0,2.0,95,0.00,,,0.00,0,weatherlink.com 1.10,2013-02-28 06:12:00,
2013-02-28 01:27:00,39.7,38.0,29.73,SW,233,0.0,0.0,92,0.00,,,0.00,0,weatherlink.com 1.10,2013-02-28 06:27:00,
2013-02-28 01:42:00,38.5,36.0,29.74,SW,233,0.0,0.0,91,0.00,,,0.00,0,weatherlink.com 1.10,2013-02-28 06:42:00,
2013-02-28 01:57:00,37.6,36.0,29.74,SW,233,0.0,0.0,93,0.00,,,0.00,0,weatherlink.com 1.10,2013-02-28 06:57:00,
2013-02-28 02:12:00,37.7,36.0,29.74,SW,233,0.0,2.0,94,0.00,,,0.00,0,weatherlink.com 1.10,2013-02-28 07:12:00,
2013-02-28 02:27:00,37.9,37.0,29.73,SW,233,0.0,0.0,95,0.00,,,0.00,0,weatherlink.com 1.10,2013-02-28 07:27:00,
2013-02-28 02:42:00,37.7,36.0,29.73,SW,233,0.0,0.0,94,0.00,,,0.00,0,weatherlink.com 1.10,2013-02-28 07:42:00,
2013-02-28 02:57:00,37.2,36.0,29.73,SW,233,0.0,0.0,95,0.00,,,0.00,0,weatherlink.com 1.10,2013-02-28 07:57:00,
2013-02-28 03:12:00,36.6,35.0,29.72,SW,233,0.0,0.0,95,0.00,,,0.00,0,weatherlink.com 1.10,2013-02-28 08:12:00,
2013-02-28 03:27:00,35.9,35.0,29.72,SW,233,0.0,0.0,95,0.00,,,0.00,0,weatherlink.com 1.10,2013-02-28 08:27:00,
2013-02-28 03:42:00,35.2,34.0,29.72,SW,233,0.0,0.0,95,0.00,,,0.00,0,weatherlink.com 1.10,2013-02-28 08:42:00,
2013-02-28 03:57:00,35.0,34.0,29.73,SW,233,0.0,0.0,95,0.00,,,0.00,0,weatherlink.com 1.10,2013-02-28 08:57:00,
2013-02-28 04:12:00,34.7,34.0,29.73,SW,233,0.0,0.0,95,0.00,,,0.00,0,weatherlink.com 1.10,2013-02-28 09:12:00,
2013-02-28 04:27:00,34.4,33.0,29.73,SW,233,0.0,0.0,95,0.00,,,0.00,0,weatherlink.com 1.10,2013-02-28 09:27:00,
2013-02-28 04:42:00,33.9,33.0,29.74,SW,233,0.0,0.0,95,0.00,,,0.00,0,weatherlink.com 1.10,2013-02-28 09:42:00,
2013-02-28 04:57:00,33.5,32.0,29.74,SW,233,0.0,0.0,95,0.00,,,0.00,0,weatherlink.com 1.10,2013-02-28 09:57:00,
2013-02-28 05:12:00,32.8,32.0,29.75,SW,233,0.0,0.0,95,0.00,,,0.00,0,weatherlink.com 1.10,2013-02-28 10:12:00,
2013-02-28 05:27:00,32.9,32.0,29.76,SW,233,0.0,0.0,96,0.00,,,0.00,0,weatherlink.com 1.10,2013-02-28 10:27:00,
2013-02-28 05:42:00,32.9,32.0,29.76,SW,233,0.0,0.0,96,0.00,,,0.00,0,weatherlink.com 1.10,2013-02-28 10:42:00,
2013-02-28 05:57:00,33.1,32.0,29.76,SW,233,0.0,0.0,96,0.00,,,0.00,0,weatherlink.com 1.10,2013-02-28 10:57:00,
2013-02-28 06:12:00,33.8,33.0,29.77,SW,233,0.0,0.0,96,0.00,,,0.00,0,weatherlink.com 1.10,2013-02-28 11:12:00,
2013-02-28 06:27:00,34.1,33.0,29.76,SW,233,0.0,0.0,96,0.00,,,0.00,0,weatherlink.com 1.10,2013-02-28 11:27:00,
2013-02-28 06:42:00,34.5,34.0,29.77,SW,233,0.0,0.0,97,0.00,,,0.00,0,weatherlink.com 1.10,2013-02-28 11:42:00,
2013-02-28 06:57:00,34.8,34.0,29.77,SW,233,0.0,0.0,96,0.00,,,0.00,5,weatherlink.com 1.10,2013-02-28 11:57:00,
2013-02-28 07:12:00,34.9,34.0,29.77,SW,233,0.0,0.0,97,0.00,,,0.00,12,weatherlink.com 1.10,2013-02-28 12:12:00,
2013-02-28 07:27:00,35.4,35.0,29.78,SW,233,0.0,0.0,97,0.00,,,0.00,25,weatherlink.com 1.10,2013-02-28 12:27:00,
2013-02-28 07:42:00,36.1,35.0,29.78,SW,233,0.0,0.0,97,0.00,,,0.00,42,weatherlink.com 1.10,2013-02-28 12:42:00,
2013-02-28 07:58:00,36.8,36.0,29.78,SW,233,0.0,0.0,97,0.00,,,0.00,56,weatherlink.com 1.10,2013-02-28 12:58:00,
2013-02-28 08:13:00,37.8,37.0,29.79,SW,233,0.0,0.0,97,0.00,,,0.00,74,weatherlink.com 1.10,2013-02-28 13:13:00,
2013-02-28 08:28:00,38.6,38.0,29.79,SW,233,0.0,0.0,97,0.00,,,0.00,88,weatherlink.com 1.10,2013-02-28 13:28:00,
2013-02-28 08:43:00,39.4,39.0,29.80,SW,233,0.0,0.0,97,0.00,,,0.00,86,weatherlink.com 1.10,2013-02-28 13:43:00,
2013-02-28 08:58:00,40.4,40.0,29.79,SW,233,0.0,0.0,97,0.00,,,0.00,128,weatherlink.com 1.10,2013-02-28 13:58:00,
2013-02-28 09:13:00,40.9,40.0,29.78,SW,233,0.0,0.0,96,0.00,,,0.00,105,weatherlink.com 1.10,2013-02-28 14:13:00,
2013-02-28 09:28:00,41.4,38.0,29.79,SW,233,0.0,0.0,87,0.00,,,0.00,81,weatherlink.com 1.10,2013-02-28 14:28:00,
2013-02-28 09:43:00,42.0,37.0,29.79,SW,233,0.0,0.0,82,0.00,,,0.00,90,weatherlink.com 1.10,2013-02-28 14:43:00,
2013-02-28 09:58:00,42.6,36.0,29.79,WSW,253,0.0,2.0,78,0.00,,,0.00,93,weatherlink.com 1.10,2013-02-28 14:58:00,
2013-02-28 10:13:00,43.0,36.0,29.79,WSW,241,0.0,2.0,75,0.00,,,0.00,123,weatherlink.com 1.10,2013-02-28 15:13:00,
2013-02-28 10:28:00,43.6,36.0,29.79,WSW,242,0.0,2.0,74,0.00,,,0.00,148,weatherlink.com 1.10,2013-02-28 15:28:00,
2013-02-28 10:43:00,44.1,34.0,29.79,SW,236,3.0,4.0,68,0.00,,,0.00,181,weatherlink.com 1.10,2013-02-28 15:43:00,
2013-02-28 10:58:00,44.8,35.0,29.79,WNW,288,2.0,6.0,69,0.00,,,0.00,225,weatherlink.com 1.10,2013-02-28 15:58:00,
2013-02-28 11:13:00,45.2,33.0,29.79,WSW,248,6.0,8.0,63,0.00,,,0.00,250,weatherlink.com 1.10,2013-02-28 16:13:00,
2013-02-28 11:28:00,45.8,35.0,29.79,SW,229,6.0,7.0,65,0.00,,,0.00,471,weatherlink.com 1.10,2013-02-28 16:28:00,
2013-02-28 11:43:00,46.5,34.0,29.79,SSW,203,0.0,9.0,62,0.00,,,0.00,243,weatherlink.com 1.10,2013-02-28 16:43:00,
2013-02-28 11:58:00,47.0,33.0,29.79,NW,304,1.0,4.0,58,0.00,,,0.00,169,weatherlink.com 1.10,2013-02-28 16:58:00,
2013-02-28 12:13:00,47.1,32.0,29.78,WSW,248,6.0,7.0,57,0.00,,,0.00,230,weatherlink.com 1.10,2013-02-28 17:13:00,
2013-02-28 12:28:00,47.0,33.0,29.78,NNE,20,3.0,6.0,58,0.00,,,0.00,148,weatherlink.com 1.10,2013-02-28 17:28:00,
2013-02-28 12:43:00,47.1,33.0,29.77,West,278,2.0,4.0,58,0.00,,,0.00,109,weatherlink.com 1.10,2013-02-28 17:43:00,
2013-02-28 12:58:00,46.7,33.0,29.77,NNW,333,0.0,3.0,59,0.00,,,0.00,109,weatherlink.com 1.10,2013-02-28 17:58:00,
2013-02-28 13:13:00,46.1,33.0,29.77,WSW,244,2.0,6.0,61,0.00,,,0.00,114,weatherlink.com 1.10,2013-02-28 18:13:00,
2013-02-28 13:28:00,46.3,31.0,29.77,West,277,4.0,9.0,56,0.00,,,0.00,179,weatherlink.com 1.10,2013-02-28 18:28:00,
2013-02-28 13:43:00,46.6,31.0,29.76,WNW,300,3.0,10.0,55,0.00,,,0.00,253,weatherlink.com 1.10,2013-02-28 18:43:00,
2013-02-28 13:58:00,47.4,30.0,29.76,West,271,4.0,13.0,51,0.00,,,0.00,362,weatherlink.com 1.10,2013-02-28 18:58:00,
2013-02-28 14:13:00,47.8,31.0,29.76,West,275,4.0,12.0,52,0.00,,,0.00,69,weatherlink.com 1.10,2013-02-28 19:13:00,
2013-02-28 14:28:00,47.0,30.0,29.77,West,280,2.0,8.0,53,0.00,,,0.00,70,weatherlink.com 1.10,2013-02-28 19:28:00,
2013-02-28 14:44:00,47.2,30.0,29.77,West,259,1.0,6.0,52,0.00,,,0.00,250,weatherlink.com 1.10,2013-02-28 19:44:00,
2013-02-28 14:58:00,48.5,29.0,29.77,West,262,3.0,10.0,47,0.00,,,0.00,650,weatherlink.com 1.10,2013-02-28 19:58:00,
2013-02-28 15:14:00,49.6,28.0,29.76,West,270,1.0,10.0,43,0.00,,,0.00,492,weatherlink.com 1.10,2013-02-28 20:14:00,
2013-02-28 15:29:00,49.1,27.0,29.77,WSW,257,11.0,15.0,43,0.00,,,0.00,258,weatherlink.com 1.10,2013-02-28 20:29:00,
2013-02-28 15:44:00,49.4,28.0,29.77,NW,313,1.0,11.0,43,0.00,,,0.00,200,weatherlink.com 1.10,2013-02-28 20:44:00,
2013-02-28 15:59:00,48.6,26.0,29.77,WSW,258,5.0,13.0,42,0.00,,,0.00,139,weatherlink.com 1.10,2013-02-28 20:59:00,
2013-02-28 16:14:00,48.2,28.0,29.77,NW,304,2.0,10.0,46,0.00,,,0.00,109,weatherlink.com 1.10,2013-02-28 21:14:00,
2013-02-28 16:29:00,47.8,27.0,29.78,WNW,284,4.0,7.0,45,0.00,,,0.00,83,weatherlink.com 1.10,2013-02-28 21:29:00,
2013-02-28 16:44:00,47.6,29.0,29.78,SW,225,4.0,8.0,48,0.00,,,0.00,49,weatherlink.com 1.10,2013-02-28 21:44:00,
2013-02-28 16:59:00,47.2,28.0,29.79,West,273,0.0,8.0,47,0.00,,,0.00,44,weatherlink.com 1.10,2013-02-28 21:59:00,
2013-02-28 17:14:00,47.0,28.0,29.79,NW,309,3.0,8.0,48,0.00,,,0.00,46,weatherlink.com 1.10,2013-02-28 22:14:00,
2013-02-28 17:29:00,46.9,28.0,29.80,WSW,255,4.0,10.0,49,0.00,,,0.00,40,weatherlink.com 1.10,2013-02-28 22:29:00,
2013-02-28 17:44:00,46.9,28.0,29.80,WSW,248,1.0,7.0,49,0.00,,,0.00,19,weatherlink.com 1.10,2013-02-28 22:44:00,
2013-02-28 17:59:00,46.0,29.0,29.80,WSW,239,7.0,9.0,51,0.00,,,0.00,11,weatherlink.com 1.10,2013-02-28 22:59:00,
2013-02-28 18:14:00,45.5,29.0,29.81,WSW,241,0.0,6.0,53,0.00,,,0.00,0,weatherlink.com 1.10,2013-02-28 23:14:00,
2013-02-28 18:29:00,44.8,28.0,29.81,WNW,283,0.0,4.0,52,0.00,,,0.00,0,weatherlink.com 1.10,2013-02-28 23:29:00,
2013-02-28 18:44:00,44.3,28.0,29.82,SW,236,3.0,6.0,54,0.00,,,0.00,0,weatherlink.com 1.10,2013-02-28 23:44:00,
2013-02-28 18:59:00,44.0,29.0,29.83,WSW,252,1.0,4.0,55,0.00,,,0.00,0,weatherlink.com 1.10,2013-02-28 23:59:00,
2013-02-28 19:14:00,43.5,28.0,29.83,SW,225,0.0,4.0,55,0.00,,,0.00,0,weatherlink.com 1.10,2013-03-01 00:14:00,
2013-02-28 19:29:00,43.2,29.0,29.84,WSW,250,0.0,3.0,57,0.00,,,0.00,0,weatherlink.com 1.10,2013-03-01 00:29:00,
2013-02-28 19:44:00,42.0,28.0,29.84,SW,236,1.0,4.0,59,0.00,,,0.00,0,weatherlink.com 1.10,2013-03-01 00:44:00,
2013-02-28 19:59:00,42.3,28.0,29.84,WSW,249,1.0,4.0,58,0.00,,,0.00,0,weatherlink.com 1.10,2013-03-01 00:59:00,
2013-02-28 20:14:00,41.9,28.0,29.85,SW,227,1.0,5.0,59,0.00,,,0.00,0,weatherlink.com 1.10,2013-03-01 01:14:00,
2013-02-28 20:29:00,41.8,28.0,29.84,West,279,0.0,5.0,58,0.00,,,0.00,0,weatherlink.com 1.10,2013-03-01 01:29:00,
2013-02-28 20:44:00,42.1,28.0,29.85,WSW,253,2.0,6.0,57,0.00,,,0.00,0,weatherlink.com 1.10,2013-03-01 01:44:00,
2013-02-28 20:59:00,41.5,28.0,29.85,West,273,0.0,5.0,59,0.00,,,0.00,0,weatherlink.com 1.10,2013-03-01 01:59:00,
2013-02-28 21:14:00,41.7,28.0,29.86,West,267,2.0,4.0,58,0.00,,,0.00,0,weatherlink.com 1.10,2013-03-01 02:14:00,
2013-02-28 21:29:00,41.2,28.0,29.86,WSW,252,0.0,4.0,60,0.00,,,0.00,0,weatherlink.com 1.10,2013-03-01 02:29:00,
2013-02-28 21:44:00,40.6,28.0,29.87,WSW,244,1.0,4.0,60,0.00,,,0.00,0,weatherlink.com 1.10,2013-03-01 02:44:00,
2013-02-28 21:59:00,40.2,28.0,29.87,SW,233,0.0,1.0,61,0.00,,,0.00,0,weatherlink.com 1.10,2013-03-01 02:59:00,
2013-02-28 22:14:00,39.2,28.0,29.87,SW,233,0.0,0.0,64,0.00,,,0.00,0,weatherlink.com 1.10,2013-03-01 03:14:00,
2013-02-28 22:29:00,38.1,28.0,29.87,SW,233,0.0,0.0,68,0.00,,,0.00,0,weatherlink.com 1.10,2013-03-01 03:29:00,
2013-02-28 22:44:00,36.2,29.0,29.87,South,180,0.0,1.0,76,0.00,,,0.00,0,weatherlink.com 1.10,2013-03-01 03:44:00,
2013-02-28 22:59:00,35.2,29.0,29.87,South,180,0.0,0.0,79,0.00,,,0.00,0,weatherlink.com 1.10,2013-03-01 03:59:00,
2013-02-28 23:14:00,34.3,29.0,29.88,South,180,0.0,0.0,81,0.00,,,0.00,0,weatherlink.com 1.10,2013-03-01 04:14:00,
2013-02-28 23:29:00,33.4,29.0,29.88,South,180,0.0,0.0,82,0.00,,,0.00,0,weatherlink.com 1.10,2013-03-01 04:29:00,
2013-02-28 23:44:00,32.7,28.0,29.88,South,180,0.0,0.0,83,0.00,,,0.00,0,weatherlink.com 1.10,2013-03-01 04:44:00,
2013-02-28 23:59:00,32.1,27.0,29.87,South,180,0.0,0.0,82,0.00,,,0.00,0,weatherlink.com 1.10,2013-03-01 04:59:00,